Time;durP1;ratioP1;P1;durP2;ratioP2;P2;SDS_P1;SDS_P2;PMS_P1;PMS_P2;Temp;Humidity;BMP_temperature;BMP_pressure;BME280_temperature;BME280_humidity;BME280_pressure;Samples;Min_cycle;Max_cycle;Signal;HPM_P1;HPM_P2
2022/09/02 00:00:45;;;;;;;10.50;5.57;;;19.50;90.40;;;;;;5057912;28;20036;-45
2022/09/02 00:03:11;;;;;;;17.85;6.40;;;19.50;89.90;;;;;;5057700;28;20456;-45
2022/09/02 00:05:37;;;;;;;11.05;5.80;;;19.50;90.30;;;;;;5057748;28;20025;-45
2022/09/02 00:08:03;;;;;;;12.18;5.50;;;19.50;90.30;;;;;;5057881;28;20045;-47
2022/09/02 00:10:29;;;;;;;13.77;6.20;;;19.50;90.50;;;;;;5057714;28;20032;-44
2022/09/02 00:12:55;;;;;;;13.13;5.82;;;19.40;90.70;;;;;;5058054;28;20062;-45
2022/09/02 00:15:21;;;;;;;13.98;6.10;;;19.50;90.70;;;;;;5058036;28;20453;-45
2022/09/02 00:17:47;;;;;;;10.50;5.90;;;19.50;90.20;;;;;;5057535;28;20029;-45
2022/09/02 00:20:13;;;;;;;11.70;5.63;;;19.50;90.10;;;;;;5057850;28;20033;-45
2022/09/02 00:22:39;;;;;;;12.05;5.75;;;19.50;90.00;;;;;;5057606;28;20025;-45
2022/09/02 00:25:06;;;;;;;11.25;6.07;;;19.50;90.30;;;;;;5057541;28;20021;-45
2022/09/02 00:27:32;;;;;;;12.65;5.68;;;19.50;90.20;;;;;;5057900;28;20036;-45
2022/09/02 00:29:57;;;;;;;12.10;6.75;;;19.50;90.00;;;;;;5057282;28;20029;-45
2022/09/02 00:32:23;;;;;;;15.40;6.85;;;19.50;90.40;;;;;;5057395;28;20036;-45
2022/09/02 00:34:49;;;;;;;11.63;6.43;;;19.50;90.10;;;;;;5057771;28;20025;-45
2022/09/02 00:37:15;;;;;;;13.65;6.40;;;19.50;90.20;;;;;;5057519;28;20025;-46
2022/09/02 00:39:41;;;;;;;13.20;6.25;;;19.50;90.30;;;;;;5057229;28;20032;-45
2022/09/02 00:42:06;;;;;;;12.45;6.47;;;19.50;90.40;;;;;;5057766;28;20056;-45
2022/09/02 00:44:32;;;;;;;14.43;6.60;;;19.50;90.10;;;;;;5057362;28;20021;-45
2022/09/02 00:46:59;;;;;;;12.65;6.18;;;19.50;90.30;;;;;;5057466;28;20017;-45
2022/09/02 00:49:27;;;;;;;13.45;6.68;;;19.50;90.10;;;;;;5057444;28;20427;-45
2022/09/02 00:52:21;;;;;;;11.70;6.00;;;19.50;89.90;;;;;;5057385;28;20021;-45
2022/09/02 00:54:57;;;;;;;11.10;5.88;;;19.50;90.00;;;;;;5057582;28;20032;-45
2022/09/02 00:57:26;;;;;;;14.70;6.97;;;19.50;90.00;;;;;;5057588;28;20368;-45
2022/09/02 01:00:07;;;;;;;13.60;7.18;;;19.50;90.30;;;;;;5057587;28;20021;-45
2022/09/02 01:02:36;;;;;;;15.30;6.78;;;19.50;90.30;;;;;;5057765;28;20070;-45
2022/09/02 01:05:04;;;;;;;13.20;6.82;;;19.50;90.30;;;;;;5057288;28;20393;-46
2022/09/02 01:07:33;;;;;;;13.52;6.28;;;19.50;90.30;;;;;;5057021;28;20020;-45
2022/09/02 01:10:00;;;;;;;12.93;6.47;;;19.50;90.10;;;;;;5057455;28;20033;-46
2022/09/02 01:12:29;;;;;;;12.60;6.50;;;19.50;90.50;;;;;;5057185;28;20086;-47
2022/09/02 01:14:56;;;;;;;13.50;5.88;;;19.40;90.40;;;;;;5057226;28;20039;-44
2022/09/02 01:17:24;;;;;;;12.15;6.05;;;19.40;90.40;;;;;;5058666;28;20028;-44
2022/09/02 01:19:53;;;;;;;13.40;6.65;;;19.50;90.30;;;;;;5060937;28;20045;-45
2022/09/02 01:22:25;;;;;;;13.68;7.13;;;19.50;90.20;;;;;;5060942;28;20013;-47
2022/09/02 01:24:52;;;;;;;13.85;6.65;;;19.40;90.40;;;;;;5060813;28;20025;-45
2022/09/02 01:27:21;;;;;;;13.13;6.38;;;19.40;90.90;;;;;;5060741;28;20021;-45
2022/09/02 01:29:58;;;;;;;13.45;6.40;;;19.40;90.50;;;;;;5060974;28;20039;-45
2022/09/02 01:32:26;;;;;;;14.70;6.57;;;19.40;90.60;;;;;;5061085;28;20476;-46
2022/09/02 01:34:52;;;;;;;13.23;6.50;;;19.40;90.30;;;;;;5060753;28;20029;-45
2022/09/02 01:37:18;;;;;;;12.52;6.88;;;19.40;90.30;;;;;;5060497;28;20051;-48
2022/09/02 01:39:44;;;;;;;12.38;6.05;;;19.40;90.50;;;;;;5060581;28;20495;-45
2022/09/02 01:42:11;;;;;;;13.80;6.15;;;19.40;90.20;;;;;;5060351;28;20427;-47
2022/09/02 01:44:42;;;;;;;16.67;6.47;;;19.40;90.20;;;;;;5060632;28;20036;-47
2022/09/02 01:47:21;;;;;;;14.68;6.10;;;19.40;90.20;;;;;;5060137;28;20404;-45
2022/09/02 01:49:48;;;;;;;13.00;6.95;;;19.40;90.50;;;;;;5060771;28;20028;-45
2022/09/02 01:52:15;;;;;;;13.45;6.45;;;19.30;90.80;;;;;;5060228;28;20457;-49
2022/09/02 01:54:40;;;;;;;11.68;5.63;;;19.30;90.40;;;;;;5060512;28;20027;-47
2022/09/02 01:57:06;;;;;;;12.68;6.40;;;19.30;90.30;;;;;;5060342;28;20124;-48
2022/09/02 01:59:32;;;;;;;12.88;6.57;;;19.30;90.30;;;;;;5060092;28;20036;-48
2022/09/02 02:01:59;;;;;;;10.73;5.88;;;19.30;90.40;;;;;;5060001;28;20025;-47
2022/09/02 02:04:25;;;;;;;13.35;6.28;;;19.30;90.30;;;;;;5060057;28;20477;-47
2022/09/02 02:06:51;;;;;;;12.20;6.18;;;19.30;90.30;;;;;;5060151;28;20020;-46
2022/09/02 02:09:17;;;;;;;13.20;6.20;;;19.30;90.10;;;;;;5059766;28;20049;-45
2022/09/02 02:11:44;;;;;;;12.13;6.50;;;19.20;90.10;;;;;;5059852;28;20041;-45
2022/09/02 02:14:11;;;;;;;12.88;6.00;;;19.20;90.20;;;;;;5059868;28;20021;-46
2022/09/02 02:16:36;;;;;;;13.98;7.20;;;19.20;90.30;;;;;;5060007;28;20731;-46
2022/09/02 02:19:03;;;;;;;13.70;6.22;;;19.10;90.10;;;;;;5060012;28;20032;-45
2022/09/02 02:21:30;;;;;;;20.05;7.03;;;19.10;90.70;;;;;;5059640;28;20072;-45
2022/09/02 02:23:56;;;;;;;14.70;6.88;;;19.00;90.80;;;;;;5059959;28;20458;-45
2022/09/02 02:26:22;;;;;;;13.25;6.32;;;19.00;90.70;;;;;;5059928;28;20032;-46
2022/09/02 02:28:48;;;;;;;13.70;6.95;;;19.00;90.40;;;;;;5059596;28;20017;-46
2022/09/02 02:31:14;;;;;;;12.13;6.25;;;19.00;90.30;;;;;;5059819;28;20025;-46
2022/09/02 02:33:40;;;;;;;12.05;6.45;;;19.00;90.10;;;;;;5059605;28;20112;-46
2022/09/02 02:36:07;;;;;;;12.23;5.97;;;18.90;90.10;;;;;;5059850;28;20028;-45
2022/09/02 02:38:35;;;;;;;10.98;5.97;;;18.80;90.10;;;;;;5059931;28;20027;-46
2022/09/02 02:41:05;;;;;;;14.48;6.43;;;18.80;90.10;;;;;;5059569;28;20152;-45
2022/09/02 02:43:32;;;;;;;14.95;6.65;;;18.80;90.10;;;;;;5059535;28;20166;-44
2022/09/02 02:45:58;;;;;;;16.40;7.15;;;18.70;90.20;;;;;;5059350;28;20558;-45
2022/09/02 02:48:23;;;;;;;14.55;7.13;;;18.70;90.20;;;;;;5059340;28;20017;-45
2022/09/02 02:50:50;;;;;;;11.65;5.72;;;18.60;90.60;;;;;;5059247;28;20112;-45
2022/09/02 02:53:16;;;;;;;14.30;6.32;;;18.60;90.50;;;;;;5059182;28;20018;-45
2022/09/02 02:55:43;;;;;;;13.95;6.20;;;18.60;90.30;;;;;;5058908;28;20516;-45
2022/09/02 02:58:09;;;;;;;11.18;6.15;;;18.50;90.20;;;;;;5059281;28;20021;-45
2022/09/02 03:00:35;;;;;;;11.30;6.07;;;18.50;90.80;;;;;;5059028;28;20032;-45
2022/09/02 03:03:09;;;;;;;12.35;5.97;;;18.40;90.40;;;;;;5058863;28;20075;-44
2022/09/02 03:05:36;;;;;;;10.65;5.78;;;18.40;90.30;;;;;;5059227;28;20043;-45
2022/09/02 03:08:04;;;;;;;15.55;6.03;;;18.30;90.10;;;;;;5058892;28;20509;-47
2022/09/02 03:10:31;;;;;;;12.05;6.35;;;18.30;90.30;;;;;;5058803;28;20032;-45
2022/09/02 03:13:01;;;;;;;13.63;6.68;;;18.30;90.50;;;;;;5059010;28;20025;-45
2022/09/02 03:15:28;;;;;;;16.42;6.65;;;18.20;90.40;;;;;;5058780;28;20021;-45
2022/09/02 03:17:55;;;;;;;12.50;7.13;;;18.20;90.60;;;;;;5059100;28;20028;-45
2022/09/02 03:20:23;;;;;;;14.60;7.10;;;18.20;90.90;;;;;;5058803;28;20113;-47
2022/09/02 03:22:50;;;;;;;13.77;6.35;;;18.20;90.50;;;;;;5058870;28;20104;-45
2022/09/02 03:25:19;;;;;;;13.35;6.82;;;18.20;90.60;;;;;;5058643;28;20032;-45
2022/09/02 03:27:46;;;;;;;14.90;6.32;;;18.20;90.70;;;;;;5058698;28;20385;-44
2022/09/02 03:30:18;;;;;;;15.30;6.38;;;18.20;90.90;;;;;;5058572;28;20051;-44
2022/09/02 03:32:44;;;;;;;15.13;5.95;;;18.20;90.40;;;;;;5058794;28;20468;-46
2022/09/02 03:35:14;;;;;;;14.98;6.78;;;18.10;90.30;;;;;;5058647;28;20036;-46
2022/09/02 03:37:40;;;;;;;13.98;6.28;;;18.10;90.50;;;;;;5058294;28;20029;-45
2022/09/02 03:40:11;;;;;;;12.48;6.28;;;18.00;90.40;;;;;;5057871;28;20214;-45
2022/09/02 03:42:37;;;;;;;12.70;6.18;;;18.00;91.00;;;;;;5057989;28;20107;-45
2022/09/02 03:45:05;;;;;;;15.02;6.63;;;18.00;90.70;;;;;;5058299;28;20045;-45
2022/09/02 03:47:31;;;;;;;15.15;7.05;;;18.00;90.60;;;;;;5058079;28;20481;-45
2022/09/02 03:49:57;;;;;;;13.38;6.45;;;18.00;90.60;;;;;;5058298;28;20088;-45
2022/09/02 03:52:24;;;;;;;12.40;6.43;;;18.00;90.60;;;;;;5058268;28;20025;-45
2022/09/02 03:54:50;;;;;;;12.70;6.32;;;18.00;90.80;;;;;;5058075;28;20033;-45
2022/09/02 03:57:16;;;;;;;14.13;5.88;;;17.90;90.50;;;;;;5057993;28;20056;-45
2022/09/02 03:59:42;;;;;;;15.60;6.03;;;17.90;90.60;;;;;;5057896;28;20505;-46
2022/09/02 04:02:08;;;;;;;14.57;6.90;;;17.90;90.70;;;;;;5057859;28;20025;-45
2022/09/02 04:04:34;;;;;;;11.00;5.70;;;17.90;91.10;;;;;;5058217;28;20075;-45
2022/09/02 04:07:00;;;;;;;11.38;5.88;;;17.90;90.50;;;;;;5057823;28;20049;-44
2022/09/02 04:09:26;;;;;;;11.35;6.20;;;17.90;90.50;;;;;;5057545;28;20497;-46
2022/09/02 04:11:52;;;;;;;13.75;5.90;;;17.90;90.90;;;;;;5057913;28;20021;-47
2022/09/02 04:14:18;;;;;;;15.45;6.05;;;17.90;90.70;;;;;;5057725;28;20100;-46
2022/09/02 04:16:44;;;;;;;12.85;5.68;;;17.90;90.50;;;;;;5058093;28;20021;-46
2022/09/02 04:19:10;;;;;;;12.30;6.28;;;17.80;90.70;;;;;;5057854;28;20028;-45
2022/09/02 04:21:38;;;;;;;13.38;5.93;;;17.80;90.60;;;;;;5057545;28;20021;-45
2022/09/02 04:24:06;;;;;;;16.05;6.65;;;17.80;90.90;;;;;;5057816;28;20019;-44
2022/09/02 04:26:32;;;;;;;17.02;6.43;;;17.80;91.10;;;;;;5057994;28;20017;-49
2022/09/02 04:28:58;;;;;;;14.05;5.65;;;17.80;90.60;;;;;;5057514;28;20020;-46
2022/09/02 04:31:27;;;;;;;15.13;6.15;;;17.80;90.90;;;;;;5057753;28;20060;-45
2022/09/02 04:33:53;;;;;;;14.60;6.10;;;17.80;90.70;;;;;;5057380;28;20399;-44
2022/09/02 04:36:21;;;;;;;12.80;6.63;;;17.70;90.90;;;;;;5057450;28;20032;-44
2022/09/02 04:38:47;;;;;;;14.43;6.05;;;17.70;91.00;;;;;;5057586;28;20032;-45
2022/09/02 04:41:20;;;;;;;12.95;5.75;;;17.70;90.60;;;;;;5057326;28;20040;-45
2022/09/02 04:43:46;;;;;;;13.20;6.05;;;17.70;90.50;;;;;;5057550;28;20020;-44
2022/09/02 04:46:13;;;;;;;13.32;6.55;;;17.70;90.70;;;;;;5057419;28;20025;-45
2022/09/02 04:48:40;;;;;;;11.82;6.10;;;17.70;90.50;;;;;;5057311;28;20461;-45
2022/09/02 04:51:11;;;;;;;15.10;6.20;;;17.70;90.80;;;;;;5057573;28;20032;-45
2022/09/02 04:53:37;;;;;;;10.88;6.07;;;17.70;90.80;;;;;;5061243;28;20092;-46
2022/09/02 04:56:05;;;;;;;14.95;6.25;;;17.60;90.90;;;;;;5061602;28;20032;-44
2022/09/02 04:58:31;;;;;;;13.63;6.07;;;17.70;90.80;;;;;;5061545;28;20075;-45
2022/09/02 05:00:57;;;;;;;13.52;6.68;;;17.70;90.70;;;;;;5043105;28;20033;-46
2022/09/02 05:03:23;;;;;;;10.38;6.20;;;17.70;90.80;;;;;;5061657;28;20377;-45
2022/09/02 05:06:04;;;;;;;12.82;6.28;;;17.70;91.30;;;;;;5060963;28;20025;-45
2022/09/02 05:08:30;;;;;;;11.40;5.88;;;17.60;90.70;;;;;;5061147;28;20041;-45
2022/09/02 05:10:56;;;;;;;14.63;6.78;;;17.60;91.10;;;;;;5061167;28;20410;-45
2022/09/02 05:13:22;;;;;;;11.43;6.35;;;17.60;91.10;;;;;;5061316;28;20032;-45
2022/09/02 05:15:48;;;;;;;13.20;7.28;;;17.60;90.90;;;;;;5060942;28;20047;-44
2022/09/02 05:18:15;;;;;;;15.00;7.53;;;17.60;90.80;;;;;;5061229;28;20029;-45
2022/09/02 05:20:44;;;;;;;16.02;7.28;;;17.70;90.80;;;;;;5061169;28;20480;-45
2022/09/02 05:23:12;;;;;;;14.82;7.50;;;17.60;91.20;;;;;;5061153;28;20078;-45
2022/09/02 05:25:38;;;;;;;11.77;6.28;;;17.60;90.90;;;;;;5060858;28;20021;-46
2022/09/02 05:28:07;;;;;;;13.15;7.32;;;17.70;90.90;;;;;;5060867;28;20021;-46
2022/09/02 05:30:35;;;;;;;14.32;7.70;;;17.70;90.80;;;;;;5060989;28;20048;-45
2022/09/02 05:33:01;;;;;;;14.20;7.75;;;17.70;91.00;;;;;;5060492;28;20107;-45
2022/09/02 05:35:27;;;;;;;14.70;7.43;;;17.70;91.30;;;;;;5060850;28;20060;-45
2022/09/02 05:37:52;;;;;;;13.98;7.70;;;17.70;91.00;;;;;;5060693;28;20029;-45
2022/09/02 05:40:18;;;;;;;14.20;7.10;;;17.70;91.40;;;;;;5060705;28;20021;-48
2022/09/02 05:42:44;;;;;;;13.35;7.45;;;17.80;91.30;;;;;;5060526;28;20071;-47
2022/09/02 05:45:10;;;;;;;14.75;7.15;;;17.80;91.20;;;;;;5060382;28;20021;-46
2022/09/02 05:47:36;;;;;;;14.77;7.25;;;17.80;91.30;;;;;;5060645;28;20029;-46
2022/09/02 05:50:03;;;;;;;15.77;8.30;;;17.80;91.40;;;;;;5060603;28;20439;-46
2022/09/02 05:52:30;;;;;;;17.33;7.65;;;17.90;91.40;;;;;;5060362;28;20028;-45
2022/09/02 05:54:56;;;;;;;12.55;6.97;;;17.90;91.30;;;;;;5060237;28;20429;-45
2022/09/02 05:57:23;;;;;;;13.75;7.18;;;17.90;91.40;;;;;;5060059;28;20540;-47
2022/09/02 05:59:54;;;;;;;13.18;8.15;;;18.00;91.50;;;;;;5060110;28;20051;-45
2022/09/02 06:02:21;;;;;;;14.32;7.53;;;18.00;91.20;;;;;;5059765;28;20051;-46
2022/09/02 06:04:50;;;;;;;13.52;6.93;;;18.00;91.30;;;;;;5060093;28;20021;-45
2022/09/02 06:07:17;;;;;;;11.65;6.25;;;18.00;91.60;;;;;;5059888;28;20029;-46
2022/09/02 06:09:43;;;;;;;14.43;7.55;;;18.00;91.40;;;;;;5059864;28;20055;-45
2022/09/02 06:12:10;;;;;;;12.98;6.75;;;18.10;91.40;;;;;;5060179;28;20021;-45
2022/09/02 06:14:36;;;;;;;14.00;7.32;;;18.10;91.40;;;;;;5059960;28;20021;-46
2022/09/02 06:17:04;;;;;;;15.85;7.30;;;18.20;91.20;;;;;;5060053;28;20021;-46
2022/09/02 06:19:31;;;;;;;14.13;7.38;;;18.20;91.60;;;;;;5059774;28;20021;-45
2022/09/02 06:21:58;;;;;;;13.77;7.70;;;18.20;91.40;;;;;;5059497;28;20029;-46
2022/09/02 06:24:25;;;;;;;16.40;8.38;;;18.30;91.30;;;;;;5059475;28;20025;-48
2022/09/02 06:26:55;;;;;;;14.20;7.82;;;18.20;91.80;;;;;;5059668;28;20075;-46
2022/09/02 06:29:22;;;;;;;14.80;8.68;;;18.30;91.60;;;;;;5059560;28;20025;-48
2022/09/02 06:31:49;;;;;;;14.65;7.72;;;18.30;91.20;;;;;;5059634;28;20063;-46
2022/09/02 06:34:18;;;;;;;15.63;7.70;;;18.30;91.60;;;;;;5059665;28;20056;-45
2022/09/02 06:36:46;;;;;;;14.75;8.43;;;18.30;91.40;;;;;;5041644;28;20026;-45
2022/09/02 06:39:15;;;;;;;15.93;8.60;;;18.30;91.30;;;;;;5059147;28;20029;-47
2022/09/02 06:41:45;;;;;;;18.25;8.93;;;18.40;91.30;;;;;;5059047;28;20055;-45
2022/09/02 06:44:12;;;;;;;16.30;8.68;;;18.40;91.30;;;;;;5059233;28;20025;-45
2022/09/02 06:46:42;;;;;;;18.23;8.77;;;18.40;91.50;;;;;;5059489;28;20421;-46
2022/09/02 06:49:09;;;;;;;15.57;9.20;;;18.40;91.60;;;;;;5059202;28;20021;-45
2022/09/02 06:51:41;;;;;;;15.50;9.40;;;18.40;92.00;;;;;;5059120;28;20020;-45
2022/09/02 06:54:09;;;;;;;19.83;9.63;;;18.40;92.20;;;;;;5059050;28;20109;-45
2022/09/02 06:56:36;;;;;;;17.08;9.93;;;18.50;92.40;;;;;;5059174;28;20542;-46
2022/09/02 06:59:03;;;;;;;16.17;8.93;;;18.70;92.30;;;;;;5059001;28;20051;-45
2022/09/02 07:01:31;;;;;;;17.45;9.60;;;18.80;92.20;;;;;;5059115;28;20021;-45
2022/09/02 07:06:46;;;;;;;16.42;9.82;;;19.00;92.40;;;;;;5058792;28;20068;-51
2022/09/02 07:09:15;;;;;;;18.50;10.10;;;19.00;92.10;;;;;;5058339;28;20045;-46
2022/09/02 07:11:41;;;;;;;17.63;10.27;;;19.10;92.20;;;;;;5058709;28;20029;-47
2022/09/02 07:14:07;;;;;;;16.80;9.57;;;19.10;92.10;;;;;;5057472;28;20066;-47
2022/09/02 07:16:41;;;;;;;21.02;10.57;;;19.10;92.00;;;;;;5058590;28;20476;-45
2022/09/02 07:19:07;;;;;;;18.60;9.65;;;19.20;92.00;;;;;;5059102;28;20039;-45
2022/09/02 07:21:33;;;;;;;17.85;10.00;;;19.20;91.90;;;;;;5058377;28;20492;-45
2022/09/02 07:24:00;;;;;;;17.05;9.43;;;19.30;92.10;;;;;;5058311;28;20521;-46
2022/09/02 07:26:27;;;;;;;16.52;9.57;;;19.30;92.10;;;;;;5058913;28;20104;-45
2022/09/02 07:28:53;;;;;;;18.27;10.25;;;19.30;91.90;;;;;;5058375;28;20021;-47
2022/09/02 07:31:19;;;;;;;16.58;10.73;;;19.40;91.80;;;;;;5058538;28;20025;-45
2022/09/02 07:33:46;;;;;;;15.88;9.13;;;19.40;91.80;;;;;;5058560;28;20035;-45
2022/09/02 07:36:13;;;;;;;15.27;8.52;;;19.40;91.70;;;;;;5058260;28;20048;-47
2022/09/02 07:38:41;;;;;;;16.23;9.85;;;19.50;91.60;;;;;;5058370;28;20029;-46
2022/09/02 07:41:08;;;;;;;17.10;9.98;;;19.40;91.60;;;;;;5058368;28;20112;-45
2022/09/02 07:43:36;;;;;;;16.40;9.23;;;19.50;91.50;;;;;;5058344;28;20025;-48
2022/09/02 07:46:03;;;;;;;20.73;9.18;;;19.60;91.70;;;;;;5058233;28;20055;-48
2022/09/02 07:48:30;;;;;;;17.88;9.90;;;19.60;91.80;;;;;;5058039;28;20025;-46
2022/09/02 07:50:57;;;;;;;16.60;9.27;;;19.70;91.50;;;;;;5057822;28;20033;-46
2022/09/02 07:53:23;;;;;;;18.58;10.52;;;19.80;91.30;;;;;;5057953;28;20025;-45
2022/09/02 07:55:49;;;;;;;18.67;10.20;;;19.90;91.30;;;;;;5057991;28;20033;-44
2022/09/02 07:58:17;;;;;;;18.88;9.85;;;20.00;91.10;;;;;;5058079;28;20029;-48
2022/09/02 08:00:43;;;;;;;19.92;10.65;;;20.00;90.80;;;;;;5057988;28;20025;-48
2022/09/02 08:03:11;;;;;;;15.07;9.32;;;19.90;91.00;;;;;;5057956;28;20088;-48
2022/09/02 08:05:38;;;;;;;19.25;10.40;;;20.00;90.90;;;;;;5058014;28;20456;-48
2022/09/02 08:08:05;;;;;;;17.95;10.48;;;20.00;90.70;;;;;;5057531;28;20132;-45
2022/09/02 08:10:31;;;;;;;19.27;10.45;;;20.00;90.80;;;;;;5057694;28;20086;-45
2022/09/02 08:13:01;;;;;;;15.98;9.55;;;20.00;91.00;;;;;;5057622;28;20033;-45
2022/09/02 08:15:28;;;;;;;15.90;9.57;;;20.10;90.80;;;;;;5057875;28;20025;-47
2022/09/02 08:17:56;;;;;;;15.23;9.68;;;20.20;90.90;;;;;;5057551;28;20033;-45
2022/09/02 08:20:22;;;;;;;17.63;10.77;;;20.30;90.70;;;;;;5057487;28;20064;-46
2022/09/02 08:22:48;;;;;;;20.60;10.30;;;20.20;90.80;;;;;;5057703;28;20096;-46
2022/09/02 08:25:15;;;;;;;16.48;9.30;;;20.30;90.80;;;;;;5057635;28;20052;-47
2022/09/02 08:27:40;;;;;;;17.05;9.52;;;20.40;90.70;;;;;;5057437;28;20021;-45
2022/09/02 08:30:09;;;;;;;13.48;8.93;;;20.50;90.70;;;;;;5057200;28;20067;-45
2022/09/02 08:32:35;;;;;;;16.02;8.88;;;20.60;90.40;;;;;;5057604;28;20047;-46
2022/09/02 08:35:03;;;;;;;17.58;10.40;;;20.60;90.10;;;;;;5057290;28;20032;-46
2022/09/02 08:37:31;;;;;;;17.33;9.45;;;20.50;90.30;;;;;;5057658;28;20021;-47
2022/09/02 08:39:57;;;;;;;16.67;9.75;;;20.70;90.30;;;;;;5057217;28;20029;-45
2022/09/02 08:42:42;;;;;;;18.65;10.10;;;20.80;90.40;;;;;;5056701;28;20017;-45
2022/09/02 08:45:19;;;;;;;;;;;20.80;90.50;;;;;;5057753;28;20054;-45
2022/09/02 08:47:48;;;;;;;19.77;11.90;;;21.00;90.70;;;;;;5057227;28;20019;-48
2022/09/02 08:50:17;;;;;;;17.08;9.82;;;21.20;90.50;;;;;;5057346;28;20039;-45
2022/09/02 08:52:57;;;;;;;18.75;11.82;;;21.40;90.40;;;;;;5057192;28;20683;-46
2022/09/02 08:55:31;;;;;;;17.52;11.43;;;21.60;88.40;;;;;;5057595;28;20082;-47
2022/09/02 08:57:57;;;;;;;20.27;11.27;;;21.70;89.60;;;;;;5056733;28;20107;-45
2022/09/02 09:00:23;;;;;;;20.65;11.65;;;21.80;89.10;;;;;;5057194;28;20029;-45
2022/09/02 09:02:59;;;;;;;19.20;11.82;;;21.90;86.30;;;;;;5057207;28;20056;-46
2022/09/02 09:05:29;;;;;;;15.85;9.95;;;22.00;87.70;;;;;;5057213;28;20017;-45
2022/09/02 09:08:02;;;;;;;19.02;11.65;;;22.30;88.80;;;;;;5056692;28;20068;-45
2022/09/02 09:10:39;;;;;;;20.02;11.15;;;22.60;89.30;;;;;;5057151;28;20500;-46
2022/09/02 09:13:33;;;;;;;17.02;10.20;;;22.90;88.80;;;;;;5057111;28;20090;-45
2022/09/02 09:16:16;;;;;;;16.88;10.85;;;23.00;86.00;;;;;;5056856;28;20388;-45
2022/09/02 09:19:07;;;;;;;16.17;9.95;;;23.20;85.50;;;;;;5056946;28;20045;-45
2022/09/02 09:21:33;;;;;;;15.55;9.75;;;23.40;83.50;;;;;;5043122;28;20037;-45
2022/09/02 09:24:09;;;;;;;15.70;9.85;;;23.30;82.20;;;;;;5056863;28;20388;-47
2022/09/02 09:26:39;;;;;;;13.77;8.23;;;22.90;81.70;;;;;;5056992;28;20025;-48
2022/09/02 09:29:06;;;;;;;14.23;9.32;;;23.10;83.80;;;;;;5057008;28;20051;-46
2022/09/02 09:31:34;;;;;;;16.50;9.30;;;23.20;85.40;;;;;;5056952;28;20025;-50
2022/09/02 09:34:08;;;;;;;13.52;7.93;;;23.30;83.10;;;;;;5056800;28;20033;-46
2022/09/02 09:36:39;;;;;;;16.08;7.95;;;23.30;83.90;;;;;;5056884;28;20043;-46
2022/09/02 09:39:29;;;;;;;12.57;8.18;;;23.50;79.40;;;;;;5059989;28;20033;-44
2022/09/02 09:42:02;;;;;;;11.60;7.57;;;23.60;82.90;;;;;;5060266;28;20056;-47
2022/09/02 09:44:45;;;;;;;12.52;8.25;;;23.80;75.90;;;;;;5060669;28;20079;-45
2022/09/02 09:47:18;;;;;;;10.85;7.00;;;23.90;77.00;;;;;;5060732;28;20065;-45
2022/09/02 09:49:45;;;;;;;12.03;7.10;;;24.00;80.20;;;;;;5060493;28;20029;-47
2022/09/02 09:52:20;;;;;;;12.57;6.72;;;24.00;79.80;;;;;;5060305;28;20059;-46
2022/09/02 09:54:46;;;;;;;11.00;7.45;;;24.20;82.30;;;;;;5060473;28;20047;-48
2022/09/02 09:57:20;;;;;;;12.82;7.63;;;25.10;78.50;;;;;;5060045;28;20021;-45
2022/09/02 09:59:48;;;;;;;13.80;9.02;;;26.50;77.20;;;;;;5060036;28;20088;-47
2022/09/02 10:02:25;;;;;;;16.23;9.98;;;27.40;79.00;;;;;;5060228;28;20035;-48
2022/09/02 10:05:09;;;;;;;14.48;9.25;;;28.10;69.60;;;;;;5060189;28;20013;-47
2022/09/02 10:07:37;;;;;;;9.40;6.00;;;28.20;67.10;;;;;;5059783;28;20078;-47
2022/09/02 10:10:18;;;;;;;11.48;7.50;;;28.20;66.90;;;;;;5059339;28;20053;-46
2022/09/02 10:12:46;;;;;;;13.32;7.88;;;27.80;66.10;;;;;;5059724;28;20076;-47
2022/09/02 10:15:12;;;;;;;12.77;9.68;;;28.60;63.00;;;;;;5059875;28;20089;-47
2022/09/02 10:17:41;;;;;;;13.00;6.95;;;29.00;61.70;;;;;;5059734;28;20107;-49
2022/09/02 10:20:34;;;;;;;11.50;7.50;;;28.00;61.10;;;;;;5059763;28;20037;-46
2022/09/02 10:23:26;;;;;;;12.27;7.73;;;28.40;64.40;;;;;;5059514;28;20377;-48
2022/09/02 10:26:04;;;;;;;10.32;7.60;;;28.30;64.20;;;;;;5059904;28;20244;-49
2022/09/02 10:28:57;;;;;;;14.05;7.68;;;28.50;63.30;;;;;;5059726;28;20057;-48
2022/09/02 10:31:34;;;;;;;9.48;6.70;;;29.80;64.30;;;;;;5059465;28;20476;-46
2022/09/02 10:34:26;;;;;;;8.48;5.75;;;29.80;58.20;;;;;;5059670;28;20093;-46
2022/09/02 10:37:10;;;;;;;10.10;5.93;;;28.60;61.00;;;;;;5059519;28;20029;-49
2022/09/02 10:40:07;;;;;;;9.52;5.72;;;28.10;61.90;;;;;;5059587;28;20503;-46
2022/09/02 10:42:54;;;;;;;11.63;7.30;;;28.60;60.20;;;;;;5059447;28;20084;-48
2022/09/02 10:45:45;;;;;;;11.73;6.53;;;30.10;60.50;;;;;;5059364;28;20017;-46
2022/09/02 10:48:29;;;;;;;10.43;6.35;;;30.30;55.80;;;;;;5059106;28;20021;-49
2022/09/02 10:51:27;;;;;;;11.38;5.93;;;29.10;52.70;;;;;;5058067;28;20484;-48
2022/09/02 10:54:25;;;;;;;11.80;5.85;;;28.60;56.80;;;;;;5059267;28;20032;-46
2022/09/02 10:57:03;;;;;;;10.75;5.75;;;28.90;58.10;;;;;;5059224;28;20380;-46
2022/09/02 10:59:32;;;;;;;11.90;7.22;;;28.70;62.70;;;;;;5059115;28;20028;-47
2022/09/02 11:02:18;;;;;;;;;;;29.30;60.20;;;;;;5059429;28;20037;-46
2022/09/02 11:04:59;;;;;;;;;;;28.60;60.80;;;;;;5059440;28;19904;-46
2022/09/02 11:07:33;;;;;;;;;;;29.10;59.20;;;;;;5059141;28;20360;-46
2022/09/02 11:10:02;;;;;;;;;;;30.40;61.60;;;;;;5059379;28;19951;-47
2022/09/02 11:12:29;;;;;;;;;;;31.70;53.40;;;;;;5059117;28;20420;-48
2022/09/02 11:14:59;;;;;;;;;;;31.60;56.90;;;;;;5059528;28;19920;-47
2022/09/02 11:17:29;;;;;;;;;;;30.60;50.20;;;;;;5059238;28;19926;-47
2022/09/02 11:20:11;;;;;;;;;;;31.20;60.30;;;;;;5059215;28;19905;-50
2022/09/02 11:22:41;;;;;;;;;;;32.30;50.30;;;;;;5059125;28;19909;-47
2022/09/02 11:25:09;;;;;;;;;;;32.70;52.90;;;;;;5059191;28;20291;-48
2022/09/02 11:27:34;;;;;;;;;;;32.80;48.50;;;;;;5058641;28;19904;-47
2022/09/02 11:30:17;;;;;;;;;;;32.10;51.60;;;;;;5058995;28;19995;-46
2022/09/02 11:32:42;;;;;;;;;;;31.80;49.50;;;;;;5058718;28;19905;-48
2022/09/02 11:35:27;;;;;;;;;;;32.50;52.30;;;;;;5040671;28;19999;-47
2022/09/02 11:37:59;;;;;;;;;;;33.60;50.80;;;;;;5058872;28;19904;-47
2022/09/02 11:40:25;;;;;;;;;;;33.60;56.80;;;;;;5058722;28;19936;-46
2022/09/02 11:43:01;;;;;;;;;;;32.70;47.80;;;;;;5058546;28;19904;-48
2022/09/02 11:45:38;;;;;;;;;;;32.60;48.70;;;;;;5058551;28;19999;-46
2022/09/02 11:48:09;;;;;;;;;;;32.20;46.30;;;;;;5058718;28;19905;-48
2022/09/02 11:50:35;;;;;;;;;;;30.90;50.10;;;;;;5058592;28;20402;-46
2022/09/02 11:53:19;;;;;;;;;;;31.00;53.90;;;;;;5058238;28;19904;-51
2022/09/02 11:55:51;;;;;;;;;;;31.70;52.50;;;;;;5058382;28;19912;-47
2022/09/02 11:58:34;;;;;;;;;;;30.60;49.40;;;;;;5058264;28;19983;-48
2022/09/02 12:01:03;;;;;;;;;;;31.10;49.60;;;;;;5058308;28;20411;-46
2022/09/02 12:03:30;;;;;;;;;;;30.90;52.20;;;;;;5058133;28;19955;-46
2022/09/02 12:06:12;;;;;;;;;;;31.60;46.60;;;;;;5058205;28;19981;-48
2022/09/02 12:08:41;;;;;;;;;;;30.50;46.70;;;;;;5057833;28;20394;-49
2022/09/02 12:11:08;;;;;;;;;;;30.60;48.70;;;;;;5058053;28;19908;-46
2022/09/02 12:13:37;;;;;;;;;;;31.30;49.10;;;;;;5058316;28;20054;-48
2022/09/02 12:16:14;;;;;;;;;;;30.50;48.80;;;;;;5057981;28;20291;-47
2022/09/02 12:18:57;;;;;;;;;;;30.20;48.10;;;;;;5058078;28;19916;-46
2022/09/02 12:21:23;;;;;;;;;;;30.00;51.90;;;;;;5057908;28;19917;-48
2022/09/02 12:23:52;;;;;;;;;;;30.20;48.60;;;;;;5057923;28;19905;-48
2022/09/02 12:26:19;;;;;;;;;;;30.00;49.20;;;;;;5057982;28;19955;-49
2022/09/02 12:28:46;;;;;;;;;;;30.00;50.40;;;;;;5057895;28;19904;-48
2022/09/02 12:31:13;;;;;;;;;;;30.00;50.30;;;;;;5058054;28;19911;-48
2022/09/02 12:33:40;;;;;;;;;;;29.50;51.70;;;;;;5057685;28;19904;-47
2022/09/02 12:36:07;;;;;;;;;;;29.60;50.60;;;;;;5057994;28;19905;-47
2022/09/02 12:38:37;;;;;;;;;;;29.80;51.70;;;;;;5057868;28;19905;-48
2022/09/02 12:41:03;;;;;;;;;;;30.20;49.40;;;;;;5057394;28;20394;-45
2022/09/02 12:43:32;;;;;;;;;;;29.50;48.50;;;;;;5057925;28;19912;-47
2022/09/02 12:46:16;;;;;;;;;;;28.80;50.70;;;;;;5057901;28;19905;-45
2022/09/02 12:48:45;;;;;;;;;;;29.10;51.70;;;;;;5058162;28;20337;-46
2022/09/02 12:51:30;;;;;;;;;;;29.20;50.90;;;;;;5057644;28;19912;-47
2022/09/02 12:53:56;;;;;;;;;;;29.40;50.00;;;;;;5057979;28;19905;-45
2022/09/02 12:56:22;;;;;;;;;;;28.10;52.60;;;;;;5039563;28;19908;-47
2022/09/02 12:58:52;;;;;;;;;;;27.20;54.80;;;;;;5057543;28;19911;-46
2022/09/02 13:01:18;;;;;;;;;;;27.40;55.50;;;;;;5057664;28;20004;-49
2022/09/02 13:03:58;;;;;;;;;;;28.20;55.10;;;;;;5057516;28;19936;-46
2022/09/02 13:06:24;;;;;;;;;;;28.40;52.80;;;;;;5057434;28;19995;-45